Casville, North Carolina
Current Conditions -  °F | °C
As of 4:53 AM on Thursday 23 Oct 2014 (Local Time) from KDAN Reporting Station
Clear Clear  
Wind Chill: 10°   Ceiling: Unl
Heat Index: 10°   Visibility: 10mi
Dew Point:   Wind: 9mph
Humidity: 66%   Direction: 300°WNW
Pressure: 30.02"   Gusts: NA
Location:  36.4355°N, 79.5464°W
Report Text: KDAN 230853Z AUTO 30008KT 10SM CLR 10/04 A3002 RMK AO2 SLP158 T01000039 56004
Loading
Personal Weather Stations






























Interactive Weather Map
Tropical Storm Tracking
New forecast layout! Learn more

10-Day Weather Forecast

Advertisements
Track Severe Weather on mobile